sensor_id;sensor_type;location;lat;lon;timestamp;P1;durP1;ratioP1;P2;durP2;ratioP2
27491;SDS011;14927;51.210;6.838;2023-02-12T00:00:25;65.32;;;38.78;;
27491;SDS011;14927;51.210;6.838;2023-02-12T00:03:10;66.43;;;40.00;;
27491;SDS011;14927;51.210;6.838;2023-02-12T00:05:58;68.07;;;38.92;;
27491;SDS011;14927;51.210;6.838;2023-02-12T00:08:47;63.53;;;38.35;;
27491;SDS011;14927;51.210;6.838;2023-02-12T00:11:33;69.47;;;39.15;;
27491;SDS011;14927;51.210;6.838;2023-02-12T00:14:18;71.15;;;38.45;;
27491;SDS011;14927;51.210;6.838;2023-02-12T00:17:03;70.65;;;39.22;;
27491;SDS011;14927;51.210;6.838;2023-02-12T00:19:48;73.32;;;39.67;;
27491;SDS011;14927;51.210;6.838;2023-02-12T00:22:35;66.35;;;38.63;;
27491;SDS011;14927;51.210;6.838;2023-02-12T00:25:19;67.13;;;38.70;;
27491;SDS011;14927;51.210;6.838;2023-02-12T00:28:04;70.65;;;40.45;;
27491;SDS011;14927;51.210;6.838;2023-02-12T00:30:49;67.97;;;40.38;;
27491;SDS011;14927;51.210;6.838;2023-02-12T00:33:34;67.03;;;39.58;;
27491;SDS011;14927;51.210;6.838;2023-02-12T00:36:20;70.85;;;40.25;;
27491;SDS011;14927;51.210;6.838;2023-02-12T00:39:08;69.30;;;40.30;;
27491;SDS011;14927;51.210;6.838;2023-02-12T00:41:55;69.85;;;40.20;;
27491;SDS011;14927;51.210;6.838;2023-02-12T00:44:39;73.68;;;39.80;;
27491;SDS011;14927;51.210;6.838;2023-02-12T00:47:24;66.43;;;37.95;;
27491;SDS011;14927;51.210;6.838;2023-02-12T00:50:09;72.03;;;40.72;;
27491;SDS011;14927;51.210;6.838;2023-02-12T00:52:55;67.57;;;40.15;;
27491;SDS011;14927;51.210;6.838;2023-02-12T00:55:39;69.78;;;39.10;;
27491;SDS011;14927;51.210;6.838;2023-02-12T00:58:25;72.75;;;40.15;;
27491;SDS011;14927;51.210;6.838;2023-02-12T01:01:11;61.65;;;36.65;;
27491;SDS011;14927;51.210;6.838;2023-02-12T01:03:56;69.80;;;41.08;;
27491;SDS011;14927;51.210;6.838;2023-02-12T01:06:40;69.68;;;38.03;;
27491;SDS011;14927;51.210;6.838;2023-02-12T01:09:25;66.60;;;39.67;;
27491;SDS011;14927;51.210;6.838;2023-02-12T01:12:10;71.82;;;40.45;;
27491;SDS011;14927;51.210;6.838;2023-02-12T01:14:54;74.45;;;41.05;;
27491;SDS011;14927;51.210;6.838;2023-02-12T01:17:39;73.93;;;41.47;;
27491;SDS011;14927;51.210;6.838;2023-02-12T01:20:25;75.40;;;41.05;;
27491;SDS011;14927;51.210;6.838;2023-02-12T01:23:09;75.32;;;41.55;;
27491;SDS011;14927;51.210;6.838;2023-02-12T01:25:54;70.30;;;40.55;;
27491;SDS011;14927;51.210;6.838;2023-02-12T01:28:39;71.63;;;40.88;;
27491;SDS011;14927;51.210;6.838;2023-02-12T01:31:26;72.90;;;41.53;;
27491;SDS011;14927;51.210;6.838;2023-02-12T01:34:18;72.05;;;40.60;;
27491;SDS011;14927;51.210;6.838;2023-02-12T01:37:03;70.28;;;40.95;;
27491;SDS011;14927;51.210;6.838;2023-02-12T01:39:49;68.93;;;37.85;;
27491;SDS011;14927;51.210;6.838;2023-02-12T01:42:33;71.70;;;40.60;;
27491;SDS011;14927;51.210;6.838;2023-02-12T01:48:06;69.25;;;37.22;;
27491;SDS011;14927;51.210;6.838;2023-02-12T01:50:50;66.97;;;39.13;;
27491;SDS011;14927;51.210;6.838;2023-02-12T01:53:39;65.78;;;38.40;;
27491;SDS011;14927;51.210;6.838;2023-02-12T01:56:32;72.70;;;38.40;;
27491;SDS011;14927;51.210;6.838;2023-02-12T01:59:17;69.15;;;39.58;;
27491;SDS011;14927;51.210;6.838;2023-02-12T02:02:03;68.00;;;38.88;;
27491;SDS011;14927;51.210;6.838;2023-02-12T02:04:49;71.72;;;38.45;;
27491;SDS011;14927;51.210;6.838;2023-02-12T02:07:39;66.85;;;37.80;;
27491;SDS011;14927;51.210;6.838;2023-02-12T02:10:26;69.90;;;38.50;;
27491;SDS011;14927;51.210;6.838;2023-02-12T02:13:14;68.50;;;37.10;;
27491;SDS011;14927;51.210;6.838;2023-02-12T02:16:19;71.35;;;39.40;;
27491;SDS011;14927;51.210;6.838;2023-02-12T02:20:12;83.53;;;42.08;;
27491;SDS011;14927;51.210;6.838;2023-02-12T02:26:36;98.03;;;46.50;;
27491;SDS011;14927;51.210;6.838;2023-02-12T02:32:27;88.82;;;45.35;;
27491;SDS011;14927;51.210;6.838;2023-02-12T02:38:33;89.25;;;45.05;;
27491;SDS011;14927;51.210;6.838;2023-02-12T02:44:45;81.35;;;41.47;;
27491;SDS011;14927;51.210;6.838;2023-02-12T02:47:45;69.45;;;37.35;;
27491;SDS011;14927;51.210;6.838;2023-02-12T02:50:37;71.80;;;38.90;;
27491;SDS011;14927;51.210;6.838;2023-02-12T02:53:34;74.28;;;39.78;;
27491;SDS011;14927;51.210;6.838;2023-02-12T02:56:25;75.22;;;40.55;;
27491;SDS011;14927;51.210;6.838;2023-02-12T02:59:14;74.93;;;40.28;;
27491;SDS011;14927;51.210;6.838;2023-02-12T03:02:08;69.13;;;38.60;;
27491;SDS011;14927;51.210;6.838;2023-02-12T03:05:23;70.40;;;38.58;;
27491;SDS011;14927;51.210;6.838;2023-02-12T03:08:16;72.05;;;37.90;;
27491;SDS011;14927;51.210;6.838;2023-02-12T03:11:18;69.53;;;38.65;;
27491;SDS011;14927;51.210;6.838;2023-02-12T03:17:30;67.00;;;37.78;;
27491;SDS011;14927;51.210;6.838;2023-02-12T03:20:22;69.20;;;39.83;;
27491;SDS011;14927;51.210;6.838;2023-02-12T03:23:14;74.15;;;39.70;;
27491;SDS011;14927;51.210;6.838;2023-02-12T03:26:19;69.40;;;39.67;;
27491;SDS011;14927;51.210;6.838;2023-02-12T03:29:08;72.10;;;39.20;;
27491;SDS011;14927;51.210;6.838;2023-02-12T03:31:58;71.15;;;39.85;;
27491;SDS011;14927;51.210;6.838;2023-02-12T03:35:24;68.72;;;39.47;;
27491;SDS011;14927;51.210;6.838;2023-02-12T03:41:25;71.28;;;38.55;;
27491;SDS011;14927;51.210;6.838;2023-02-12T03:53:46;68.10;;;38.35;;
27491;SDS011;14927;51.210;6.838;2023-02-12T03:56:33;72.97;;;40.17;;
27491;SDS011;14927;51.210;6.838;2023-02-12T03:59:30;69.97;;;39.55;;
27491;SDS011;14927;51.210;6.838;2023-02-12T04:02:18;66.57;;;36.25;;
27491;SDS011;14927;51.210;6.838;2023-02-12T04:05:05;69.30;;;38.40;;
27491;SDS011;14927;51.210;6.838;2023-02-12T04:07:51;70.53;;;38.60;;
27491;SDS011;14927;51.210;6.838;2023-02-12T04:13:25;72.90;;;39.65;;
27491;SDS011;14927;51.210;6.838;2023-02-12T04:19:29;73.93;;;39.05;;
27491;SDS011;14927;51.210;6.838;2023-02-12T04:22:29;65.03;;;37.75;;
27491;SDS011;14927;51.210;6.838;2023-02-12T04:26:06;66.57;;;39.35;;
27491;SDS011;14927;51.210;6.838;2023-02-12T04:32:14;70.78;;;38.83;;
27491;SDS011;14927;51.210;6.838;2023-02-12T04:35:17;70.28;;;39.10;;
27491;SDS011;14927;51.210;6.838;2023-02-12T04:38:27;66.88;;;37.35;;
27491;SDS011;14927;51.210;6.838;2023-02-12T04:41:27;73.90;;;38.85;;
27491;SDS011;14927;51.210;6.838;2023-02-12T04:44:14;65.22;;;36.85;;
27491;SDS011;14927;51.210;6.838;2023-02-12T04:47:02;68.20;;;38.47;;
27491;SDS011;14927;51.210;6.838;2023-02-12T04:49:46;69.63;;;37.70;;
27491;SDS011;14927;51.210;6.838;2023-02-12T04:52:31;70.25;;;38.92;;
27491;SDS011;14927;51.210;6.838;2023-02-12T04:55:16;69.90;;;39.28;;
27491;SDS011;14927;51.210;6.838;2023-02-12T04:58:01;72.05;;;39.33;;
27491;SDS011;14927;51.210;6.838;2023-02-12T05:00:45;68.18;;;38.72;;
27491;SDS011;14927;51.210;6.838;2023-02-12T05:03:30;70.95;;;37.70;;
27491;SDS011;14927;51.210;6.838;2023-02-12T05:06:15;71.00;;;40.33;;
27491;SDS011;14927;51.210;6.838;2023-02-12T05:08:59;69.68;;;39.00;;
27491;SDS011;14927;51.210;6.838;2023-02-12T05:11:44;69.65;;;38.95;;
27491;SDS011;14927;51.210;6.838;2023-02-12T05:14:28;64.53;;;38.03;;
27491;SDS011;14927;51.210;6.838;2023-02-12T05:17:13;65.20;;;38.35;;
27491;SDS011;14927;51.210;6.838;2023-02-12T05:19:58;72.55;;;40.70;;
27491;SDS011;14927;51.210;6.838;2023-02-12T05:22:42;72.43;;;38.60;;
27491;SDS011;14927;51.210;6.838;2023-02-12T05:25:27;65.68;;;38.25;;
27491;SDS011;14927;51.210;6.838;2023-02-12T05:28:11;73.75;;;39.40;;
27491;SDS011;14927;51.210;6.838;2023-02-12T05:31:00;70.95;;;38.00;;
27491;SDS011;14927;51.210;6.838;2023-02-12T05:33:48;67.82;;;38.28;;
27491;SDS011;14927;51.210;6.838;2023-02-12T05:36:33;75.38;;;39.50;;
27491;SDS011;14927;51.210;6.838;2023-02-12T05:39:18;73.55;;;40.30;;
27491;SDS011;14927;51.210;6.838;2023-02-12T05:42:02;68.85;;;38.83;;
27491;SDS011;14927;51.210;6.838;2023-02-12T05:44:47;75.10;;;40.20;;
27491;SDS011;14927;51.210;6.838;2023-02-12T05:47:32;74.70;;;41.53;;
27491;SDS011;14927;51.210;6.838;2023-02-12T05:50:17;70.68;;;40.08;;
27491;SDS011;14927;51.210;6.838;2023-02-12T05:53:01;77.82;;;41.75;;
27491;SDS011;14927;51.210;6.838;2023-02-12T05:55:46;74.43;;;40.58;;
27491;SDS011;14927;51.210;6.838;2023-02-12T05:58:30;78.30;;;41.33;;
27491;SDS011;14927;51.210;6.838;2023-02-12T06:01:16;85.50;;;43.40;;
27491;SDS011;14927;51.210;6.838;2023-02-12T06:04:19;86.68;;;43.60;;
27491;SDS011;14927;51.210;6.838;2023-02-12T06:07:08;77.45;;;42.92;;
27491;SDS011;14927;51.210;6.838;2023-02-12T06:09:52;83.32;;;43.17;;
27491;SDS011;14927;51.210;6.838;2023-02-12T06:12:40;80.40;;;43.25;;
27491;SDS011;14927;51.210;6.838;2023-02-12T06:15:26;76.18;;;41.55;;
27491;SDS011;14927;51.210;6.838;2023-02-12T06:18:10;81.10;;;42.30;;
27491;SDS011;14927;51.210;6.838;2023-02-12T06:20:55;81.25;;;44.20;;
27491;SDS011;14927;51.210;6.838;2023-02-12T06:23:40;77.25;;;42.13;;
27491;SDS011;14927;51.210;6.838;2023-02-12T06:26:24;81.82;;;43.75;;
27491;SDS011;14927;51.210;6.838;2023-02-12T06:29:09;79.03;;;42.28;;
27491;SDS011;14927;51.210;6.838;2023-02-12T06:31:55;77.63;;;42.47;;
27491;SDS011;14927;51.210;6.838;2023-02-12T06:34:40;76.85;;;41.97;;
27491;SDS011;14927;51.210;6.838;2023-02-12T06:37:25;76.38;;;39.92;;
27491;SDS011;14927;51.210;6.838;2023-02-12T06:40:10;78.53;;;41.72;;
27491;SDS011;14927;51.210;6.838;2023-02-12T06:42:55;81.80;;;43.38;;
27491;SDS011;14927;51.210;6.838;2023-02-12T06:45:39;75.78;;;41.53;;
27491;SDS011;14927;51.210;6.838;2023-02-12T06:48:24;80.40;;;42.40;;
27491;SDS011;14927;51.210;6.838;2023-02-12T06:51:10;78.40;;;42.40;;
27491;SDS011;14927;51.210;6.838;2023-02-12T06:54:00;80.88;;;42.35;;
27491;SDS011;14927;51.210;6.838;2023-02-12T06:56:44;77.65;;;41.15;;
27491;SDS011;14927;51.210;6.838;2023-02-12T06:59:29;73.90;;;41.13;;
27491;SDS011;14927;51.210;6.838;2023-02-12T07:02:14;68.60;;;39.30;;
27491;SDS011;14927;51.210;6.838;2023-02-12T07:04:59;70.55;;;40.47;;
27491;SDS011;14927;51.210;6.838;2023-02-12T07:07:44;73.70;;;41.05;;
27491;SDS011;14927;51.210;6.838;2023-02-12T07:10:29;77.85;;;41.58;;
27491;SDS011;14927;51.210;6.838;2023-02-12T07:13:13;71.43;;;40.72;;
27491;SDS011;14927;51.210;6.838;2023-02-12T07:15:58;70.50;;;39.13;;
27491;SDS011;14927;51.210;6.838;2023-02-12T07:18:51;71.50;;;40.40;;
27491;SDS011;14927;51.210;6.838;2023-02-12T07:21:35;75.78;;;40.85;;
27491;SDS011;14927;51.210;6.838;2023-02-12T07:24:20;69.38;;;39.75;;
27491;SDS011;14927;51.210;6.838;2023-02-12T07:27:04;77.65;;;40.28;;
27491;SDS011;14927;51.210;6.838;2023-02-12T07:29:49;78.90;;;40.72;;
27491;SDS011;14927;51.210;6.838;2023-02-12T07:32:34;76.30;;;39.50;;
27491;SDS011;14927;51.210;6.838;2023-02-12T07:35:19;68.55;;;39.50;;
27491;SDS011;14927;51.210;6.838;2023-02-12T07:38:04;70.88;;;39.53;;
27491;SDS011;14927;51.210;6.838;2023-02-12T07:40:48;77.20;;;41.53;;
27491;SDS011;14927;51.210;6.838;2023-02-12T07:43:33;75.47;;;41.50;;
27491;SDS011;14927;51.210;6.838;2023-02-12T07:46:19;72.78;;;40.13;;
27491;SDS011;14927;51.210;6.838;2023-02-12T07:49:27;70.03;;;40.33;;
27491;SDS011;14927;51.210;6.838;2023-02-12T07:52:11;77.18;;;40.70;;
27491;SDS011;14927;51.210;6.838;2023-02-12T07:54:56;70.30;;;40.25;;
27491;SDS011;14927;51.210;6.838;2023-02-12T07:57:41;71.57;;;39.97;;
27491;SDS011;14927;51.210;6.838;2023-02-12T08:00:26;68.95;;;40.30;;
27491;SDS011;14927;51.210;6.838;2023-02-12T08:03:10;72.13;;;41.67;;
27491;SDS011;14927;51.210;6.838;2023-02-12T08:05:55;72.75;;;40.97;;
27491;SDS011;14927;51.210;6.838;2023-02-12T08:08:39;74.95;;;42.03;;
27491;SDS011;14927;51.210;6.838;2023-02-12T08:11:24;72.88;;;42.17;;
27491;SDS011;14927;51.210;6.838;2023-02-12T08:14:11;77.53;;;45.17;;
27491;SDS011;14927;51.210;6.838;2023-02-12T08:16:59;78.45;;;43.33;;
27491;SDS011;14927;51.210;6.838;2023-02-12T08:19:43;77.40;;;42.75;;
27491;SDS011;14927;51.210;6.838;2023-02-12T08:22:28;79.80;;;43.03;;
27491;SDS011;14927;51.210;6.838;2023-02-12T08:25:13;75.63;;;42.05;;
27491;SDS011;14927;51.210;6.838;2023-02-12T08:27:58;73.53;;;41.15;;
27491;SDS011;14927;51.210;6.838;2023-02-12T08:30:42;72.88;;;41.00;;
27491;SDS011;14927;51.210;6.838;2023-02-12T08:33:27;74.88;;;40.55;;
27491;SDS011;14927;51.210;6.838;2023-02-12T08:36:12;69.43;;;41.83;;
27491;SDS011;14927;51.210;6.838;2023-02-12T08:39:01;72.95;;;40.33;;
27491;SDS011;14927;51.210;6.838;2023-02-12T08:41:46;73.68;;;41.75;;
27491;SDS011;14927;51.210;6.838;2023-02-12T08:44:31;74.70;;;42.67;;
27491;SDS011;14927;51.210;6.838;2023-02-12T08:47:15;68.18;;;40.45;;
27491;SDS011;14927;51.210;6.838;2023-02-12T08:50:00;68.20;;;41.75;;
27491;SDS011;14927;51.210;6.838;2023-02-12T08:52:45;76.32;;;43.08;;
27491;SDS011;14927;51.210;6.838;2023-02-12T08:55:29;74.03;;;43.35;;
27491;SDS011;14927;51.210;6.838;2023-02-12T08:58:15;77.97;;;43.22;;
27491;SDS011;14927;51.210;6.838;2023-02-12T09:01:01;77.20;;;42.35;;
27491;SDS011;14927;51.210;6.838;2023-02-12T09:03:53;78.78;;;42.63;;
27491;SDS011;14927;51.210;6.838;2023-02-12T09:06:40;77.68;;;42.97;;
27491;SDS011;14927;51.210;6.838;2023-02-12T09:09:26;76.35;;;42.38;;
27491;SDS011;14927;51.210;6.838;2023-02-12T09:12:13;73.38;;;41.80;;
27491;SDS011;14927;51.210;6.838;2023-02-12T09:15:04;84.40;;;41.50;;
27491;SDS011;14927;51.210;6.838;2023-02-12T09:17:49;75.03;;;42.72;;
27491;SDS011;14927;51.210;6.838;2023-02-12T09:20:36;77.88;;;43.72;;
27491;SDS011;14927;51.210;6.838;2023-02-12T09:23:29;59.95;;;33.80;;
27491;SDS011;14927;51.210;6.838;2023-02-12T09:26:15;54.22;;;30.77;;
27491;SDS011;14927;51.210;6.838;2023-02-12T09:29:03;51.83;;;29.10;;
27491;SDS011;14927;51.210;6.838;2023-02-12T09:31:47;70.90;;;41.20;;
27491;SDS011;14927;51.210;6.838;2023-02-12T09:34:35;64.00;;;37.90;;
27491;SDS011;14927;51.210;6.838;2023-02-12T09:37:20;66.47;;;39.85;;
27491;SDS011;14927;51.210;6.838;2023-02-12T09:40:05;64.38;;;39.50;;
27491;SDS011;14927;51.210;6.838;2023-02-12T09:42:55;65.05;;;38.88;;
27491;SDS011;14927;51.210;6.838;2023-02-12T09:45:52;66.93;;;38.88;;
27491;SDS011;14927;51.210;6.838;2023-02-12T09:52:00;66.43;;;38.97;;
27491;SDS011;14927;51.210;6.838;2023-02-12T09:54:46;65.28;;;39.25;;
27491;SDS011;14927;51.210;6.838;2023-02-12T09:57:32;68.03;;;41.17;;
27491;SDS011;14927;51.210;6.838;2023-02-12T10:00:27;71.65;;;41.05;;
27491;SDS011;14927;51.210;6.838;2023-02-12T10:03:15;66.85;;;40.75;;
27491;SDS011;14927;51.210;6.838;2023-02-12T10:06:04;67.72;;;39.85;;
27491;SDS011;14927;51.210;6.838;2023-02-12T10:12:03;68.57;;;39.38;;
27491;SDS011;14927;51.210;6.838;2023-02-12T10:28:33;67.80;;;38.83;;
27491;SDS011;14927;51.210;6.838;2023-02-12T10:31:30;65.85;;;38.20;;
27491;SDS011;14927;51.210;6.838;2023-02-12T10:34:23;65.05;;;38.20;;
27491;SDS011;14927;51.210;6.838;2023-02-12T10:37:19;65.38;;;37.88;;
27491;SDS011;14927;51.210;6.838;2023-02-12T10:40:21;63.92;;;37.58;;
27491;SDS011;14927;51.210;6.838;2023-02-12T10:43:13;66.32;;;38.83;;
27491;SDS011;14927;51.210;6.838;2023-02-12T10:45:57;62.25;;;36.63;;
27491;SDS011;14927;51.210;6.838;2023-02-12T10:48:47;63.13;;;37.65;;
27491;SDS011;14927;51.210;6.838;2023-02-12T10:54:47;60.55;;;35.85;;
27491;SDS011;14927;51.210;6.838;2023-02-12T10:57:32;59.60;;;36.65;;
27491;SDS011;14927;51.210;6.838;2023-02-12T11:00:26;64.97;;;37.25;;
27491;SDS011;14927;51.210;6.838;2023-02-12T11:03:27;61.13;;;36.45;;
27491;SDS011;14927;51.210;6.838;2023-02-12T11:06:21;61.70;;;36.83;;
27491;SDS011;14927;51.210;6.838;2023-02-12T11:09:09;56.45;;;35.35;;
27491;SDS011;14927;51.210;6.838;2023-02-12T11:12:27;51.60;;;33.08;;
27491;SDS011;14927;51.210;6.838;2023-02-12T11:15:45;57.75;;;33.88;;
27491;SDS011;14927;51.210;6.838;2023-02-12T11:18:31;49.70;;;32.22;;
27491;SDS011;14927;51.210;6.838;2023-02-12T11:21:21;53.63;;;33.08;;
27491;SDS011;14927;51.210;6.838;2023-02-12T11:32:53;50.45;;;31.52;;
27491;SDS011;14927;51.210;6.838;2023-02-12T11:35:38;43.92;;;28.48;;
27491;SDS011;14927;51.210;6.838;2023-02-12T11:38:54;40.55;;;26.48;;
27491;SDS011;14927;51.210;6.838;2023-02-12T11:41:42;38.63;;;24.85;;
27491;SDS011;14927;51.210;6.838;2023-02-12T11:44:34;42.60;;;26.23;;
27491;SDS011;14927;51.210;6.838;2023-02-12T11:47:23;40.25;;;24.88;;
27491;SDS011;14927;51.210;6.838;2023-02-12T11:53:16;36.83;;;22.80;;
27491;SDS011;14927;51.210;6.838;2023-02-12T11:56:10;39.03;;;23.83;;
27491;SDS011;14927;51.210;6.838;2023-02-12T11:59:07;41.60;;;26.58;;
27491;SDS011;14927;51.210;6.838;2023-02-12T12:02:21;42.90;;;27.88;;
27491;SDS011;14927;51.210;6.838;2023-02-12T12:05:20;43.03;;;27.83;;
27491;SDS011;14927;51.210;6.838;2023-02-12T12:08:25;42.70;;;27.05;;
27491;SDS011;14927;51.210;6.838;2023-02-12T12:11:40;47.15;;;26.02;;
27491;SDS011;14927;51.210;6.838;2023-02-12T12:14:47;44.65;;;28.45;;
27491;SDS011;14927;51.210;6.838;2023-02-12T12:18:10;42.97;;;26.70;;
27491;SDS011;14927;51.210;6.838;2023-02-12T12:21:46;37.38;;;25.50;;
27491;SDS011;14927;51.210;6.838;2023-02-12T12:24:51;39.63;;;23.98;;
27491;SDS011;14927;51.210;6.838;2023-02-12T12:37:04;42.13;;;25.13;;
27491;SDS011;14927;51.210;6.838;2023-02-12T12:40:23;36.95;;;25.15;;
27491;SDS011;14927;51.210;6.838;2023-02-12T12:53:08;36.55;;;24.73;;
27491;SDS011;14927;51.210;6.838;2023-02-12T13:12:20;37.88;;;24.63;;
27491;SDS011;14927;51.210;6.838;2023-02-12T13:15:20;39.58;;;24.30;;
27491;SDS011;14927;51.210;6.838;2023-02-12T13:25:21;36.78;;;23.73;;
27491;SDS011;14927;51.210;6.838;2023-02-12T13:28:26;39.92;;;24.83;;
27491;SDS011;14927;51.210;6.838;2023-02-12T13:31:37;42.30;;;25.50;;
27491;SDS011;14927;51.210;6.838;2023-02-12T13:34:31;31.92;;;21.98;;
27491;SDS011;14927;51.210;6.838;2023-02-12T13:37:34;32.28;;;21.08;;
27491;SDS011;14927;51.210;6.838;2023-02-12T13:40:27;35.05;;;21.90;;
27491;SDS011;14927;51.210;6.838;2023-02-12T13:43:22;34.50;;;21.27;;
27491;SDS011;14927;51.210;6.838;2023-02-12T13:46:32;33.90;;;21.88;;
27491;SDS011;14927;51.210;6.838;2023-02-12T14:02:24;36.25;;;23.05;;
27491;SDS011;14927;51.210;6.838;2023-02-12T14:05:22;33.40;;;21.58;;
27491;SDS011;14927;51.210;6.838;2023-02-12T14:08:25;37.22;;;23.17;;
27491;SDS011;14927;51.210;6.838;2023-02-12T14:11:23;33.45;;;21.98;;
27491;SDS011;14927;51.210;6.838;2023-02-12T14:14:08;33.22;;;20.77;;
27491;SDS011;14927;51.210;6.838;2023-02-12T14:16:53;32.85;;;20.08;;
27491;SDS011;14927;51.210;6.838;2023-02-12T14:19:51;30.58;;;20.95;;
27491;SDS011;14927;51.210;6.838;2023-02-12T14:23:24;35.20;;;22.23;;
27491;SDS011;14927;51.210;6.838;2023-02-12T14:26:12;34.50;;;21.40;;
27491;SDS011;14927;51.210;6.838;2023-02-12T14:29:03;36.60;;;21.80;;
27491;SDS011;14927;51.210;6.838;2023-02-12T14:31:59;29.98;;;20.70;;
27491;SDS011;14927;51.210;6.838;2023-02-12T14:34:44;32.28;;;20.27;;
27491;SDS011;14927;51.210;6.838;2023-02-12T14:37:33;32.72;;;21.10;;
27491;SDS011;14927;51.210;6.838;2023-02-12T14:43:35;32.95;;;19.85;;
27491;SDS011;14927;51.210;6.838;2023-02-12T14:46:47;31.83;;;20.25;;
27491;SDS011;14927;51.210;6.838;2023-02-12T14:49:49;33.15;;;20.48;;
27491;SDS011;14927;51.210;6.838;2023-02-12T14:52:39;37.17;;;22.60;;
27491;SDS011;14927;51.210;6.838;2023-02-12T14:55:29;36.28;;;22.27;;
27491;SDS011;14927;51.210;6.838;2023-02-12T14:58:20;34.78;;;22.60;;
27491;SDS011;14927;51.210;6.838;2023-02-12T15:01:08;37.78;;;23.40;;
27491;SDS011;14927;51.210;6.838;2023-02-12T15:03:53;32.47;;;21.52;;
27491;SDS011;14927;51.210;6.838;2023-02-12T15:06:41;34.65;;;22.35;;
27491;SDS011;14927;51.210;6.838;2023-02-12T15:13:28;33.92;;;21.85;;
27491;SDS011;14927;51.210;6.838;2023-02-12T15:16:32;39.35;;;21.70;;
27491;SDS011;14927;51.210;6.838;2023-02-12T15:22:45;34.35;;;21.30;;
27491;SDS011;14927;51.210;6.838;2023-02-12T15:25:30;35.70;;;22.10;;
27491;SDS011;14927;51.210;6.838;2023-02-12T15:28:18;32.28;;;21.52;;
27491;SDS011;14927;51.210;6.838;2023-02-12T15:31:07;32.92;;;20.98;;
27491;SDS011;14927;51.210;6.838;2023-02-12T15:33:53;47.50;;;24.33;;
27491;SDS011;14927;51.210;6.838;2023-02-12T15:36:43;41.05;;;22.52;;
27491;SDS011;14927;51.210;6.838;2023-02-12T15:39:44;32.65;;;20.77;;
27491;SDS011;14927;51.210;6.838;2023-02-12T15:43:05;35.60;;;21.20;;
27491;SDS011;14927;51.210;6.838;2023-02-12T15:46:02;39.97;;;22.13;;
27491;SDS011;14927;51.210;6.838;2023-02-12T15:48:50;34.08;;;20.33;;
27491;SDS011;14927;51.210;6.838;2023-02-12T15:51:37;36.67;;;21.35;;
27491;SDS011;14927;51.210;6.838;2023-02-12T15:54:25;33.45;;;21.45;;
27491;SDS011;14927;51.210;6.838;2023-02-12T15:57:11;37.22;;;21.90;;
27491;SDS011;14927;51.210;6.838;2023-02-12T16:00:06;35.55;;;21.02;;
27491;SDS011;14927;51.210;6.838;2023-02-12T16:03:20;36.53;;;21.95;;
27491;SDS011;14927;51.210;6.838;2023-02-12T16:06:12;36.90;;;21.65;;
27491;SDS011;14927;51.210;6.838;2023-02-12T16:09:47;34.80;;;21.90;;
27491;SDS011;14927;51.210;6.838;2023-02-12T16:12:47;34.67;;;21.83;;
27491;SDS011;14927;51.210;6.838;2023-02-12T16:15:42;36.30;;;22.92;;
27491;SDS011;14927;51.210;6.838;2023-02-12T16:18:28;36.55;;;22.88;;
27491;SDS011;14927;51.210;6.838;2023-02-12T16:21:16;33.38;;;22.58;;
27491;SDS011;14927;51.210;6.838;2023-02-12T16:35:04;36.42;;;21.67;;
27491;SDS011;14927;51.210;6.838;2023-02-12T16:37:52;36.75;;;22.25;;
27491;SDS011;14927;51.210;6.838;2023-02-12T16:46:59;35.42;;;23.50;;
27491;SDS011;14927;51.210;6.838;2023-02-12T16:50:00;36.95;;;24.08;;
27491;SDS011;14927;51.210;6.838;2023-02-12T16:52:46;42.25;;;23.27;;
27491;SDS011;14927;51.210;6.838;2023-02-12T16:55:35;39.92;;;24.50;;
27491;SDS011;14927;51.210;6.838;2023-02-12T16:58:20;40.63;;;24.55;;
27491;SDS011;14927;51.210;6.838;2023-02-12T17:01:05;39.58;;;24.67;;
27491;SDS011;14927;51.210;6.838;2023-02-12T17:03:50;40.08;;;23.92;;
27491;SDS011;14927;51.210;6.838;2023-02-12T17:06:36;43.92;;;25.35;;
27491;SDS011;14927;51.210;6.838;2023-02-12T17:09:21;38.60;;;23.52;;
27491;SDS011;14927;51.210;6.838;2023-02-12T17:12:05;35.97;;;23.45;;
27491;SDS011;14927;51.210;6.838;2023-02-12T17:14:50;47.65;;;25.23;;
27491;SDS011;14927;51.210;6.838;2023-02-12T17:17:35;40.63;;;24.40;;
27491;SDS011;14927;51.210;6.838;2023-02-12T17:20:21;41.35;;;25.98;;
27491;SDS011;14927;51.210;6.838;2023-02-12T17:23:08;41.33;;;24.63;;
27491;SDS011;14927;51.210;6.838;2023-02-12T17:25:55;42.80;;;25.08;;
27491;SDS011;14927;51.210;6.838;2023-02-12T17:28:40;41.92;;;23.60;;
27491;SDS011;14927;51.210;6.838;2023-02-12T17:31:25;41.53;;;25.15;;
27491;SDS011;14927;51.210;6.838;2023-02-12T17:34:10;40.55;;;24.73;;
27491;SDS011;14927;51.210;6.838;2023-02-12T17:36:55;41.10;;;23.65;;
27491;SDS011;14927;51.210;6.838;2023-02-12T17:39:40;39.90;;;23.77;;
27491;SDS011;14927;51.210;6.838;2023-02-12T17:42:25;40.97;;;24.60;;
27491;SDS011;14927;51.210;6.838;2023-02-12T17:45:12;38.15;;;24.08;;
27491;SDS011;14927;51.210;6.838;2023-02-12T17:47:57;38.40;;;23.30;;
27491;SDS011;14927;51.210;6.838;2023-02-12T17:50:42;41.22;;;24.60;;
27491;SDS011;14927;51.210;6.838;2023-02-12T17:53:28;40.92;;;24.27;;
27491;SDS011;14927;51.210;6.838;2023-02-12T17:56:16;37.08;;;23.35;;
27491;SDS011;14927;51.210;6.838;2023-02-12T17:59:03;40.72;;;23.13;;
27491;SDS011;14927;51.210;6.838;2023-02-12T18:01:48;42.67;;;24.35;;
27491;SDS011;14927;51.210;6.838;2023-02-12T18:04:33;35.40;;;22.60;;
27491;SDS011;14927;51.210;6.838;2023-02-12T18:07:18;40.65;;;24.65;;
27491;SDS011;14927;51.210;6.838;2023-02-12T18:10:06;36.08;;;22.15;;
27491;SDS011;14927;51.210;6.838;2023-02-12T18:12:53;38.53;;;23.67;;
27491;SDS011;14927;51.210;6.838;2023-02-12T18:15:38;45.15;;;22.25;;
27491;SDS011;14927;51.210;6.838;2023-02-12T18:18:23;36.08;;;21.98;;
27491;SDS011;14927;51.210;6.838;2023-02-12T18:21:10;34.17;;;21.48;;
27491;SDS011;14927;51.210;6.838;2023-02-12T18:23:57;38.28;;;21.80;;
27491;SDS011;14927;51.210;6.838;2023-02-12T18:26:44;37.88;;;21.58;;
27491;SDS011;14927;51.210;6.838;2023-02-12T18:40:34;35.10;;;21.15;;
27491;SDS011;14927;51.210;6.838;2023-02-12T18:43:22;32.67;;;21.27;;
27491;SDS011;14927;51.210;6.838;2023-02-12T18:46:08;32.65;;;19.65;;
27491;SDS011;14927;51.210;6.838;2023-02-12T18:49:02;31.00;;;19.25;;
27491;SDS011;14927;51.210;6.838;2023-02-12T18:51:47;37.53;;;19.58;;
27491;SDS011;14927;51.210;6.838;2023-02-12T18:54:33;30.58;;;18.98;;
27491;SDS011;14927;51.210;6.838;2023-02-12T18:57:18;32.55;;;18.27;;
27491;SDS011;14927;51.210;6.838;2023-02-12T19:00:05;24.25;;;16.92;;
27491;SDS011;14927;51.210;6.838;2023-02-12T19:02:50;25.17;;;15.95;;
27491;SDS011;14927;51.210;6.838;2023-02-12T19:05:35;28.60;;;16.55;;
27491;SDS011;14927;51.210;6.838;2023-02-12T19:08:20;23.33;;;14.27;;
27491;SDS011;14927;51.210;6.838;2023-02-12T19:11:05;24.98;;;13.82;;
27491;SDS011;14927;51.210;6.838;2023-02-12T19:13:52;21.17;;;13.43;;
27491;SDS011;14927;51.210;6.838;2023-02-12T19:16:38;21.88;;;12.52;;
27491;SDS011;14927;51.210;6.838;2023-02-12T19:19:29;21.60;;;12.05;;
27491;SDS011;14927;51.210;6.838;2023-02-12T19:22:13;17.58;;;11.30;;
27491;SDS011;14927;51.210;6.838;2023-02-12T19:24:58;17.00;;;9.98;;